createdAt,value
2023-07-25T03:45:15.433Z,17.50
2023-07-25T03:47:42.141Z,17.40
2023-07-25T03:50:09.560Z,17.40
2023-07-25T03:52:36.279Z,17.50
2023-07-25T03:55:02.976Z,17.40
2023-07-25T03:57:29.714Z,17.50
2023-07-25T03:59:56.441Z,17.50
2023-07-25T04:02:23.319Z,17.50
2023-07-25T04:04:50.365Z,17.50
2023-07-25T04:07:17.153Z,17.50
2023-07-25T04:09:43.842Z,17.50
2023-07-25T04:12:10.781Z,17.50
2023-07-25T04:14:37.469Z,17.50
2023-07-25T04:17:04.416Z,17.50
2023-07-25T04:19:31.099Z,17.60
2023-07-25T04:21:57.809Z,17.60
2023-07-25T04:24:24.651Z,17.60
2023-07-25T04:26:51.453Z,17.70
2023-07-25T04:29:18.190Z,17.70
2023-07-25T04:31:45.859Z,17.70
2023-07-25T04:34:12.857Z,17.70
2023-07-25T04:36:39.605Z,17.60
2023-07-25T04:39:06.389Z,17.60
2023-07-25T04:41:33.456Z,17.60
2023-07-25T04:44:00.373Z,17.40
2023-07-25T04:46:27.180Z,17.40
2023-07-25T04:48:53.920Z,17.40
2023-07-25T04:51:20.693Z,17.50
2023-07-25T04:53:47.425Z,17.50
2023-07-25T04:56:14.246Z,17.50
2023-07-25T04:58:42.277Z,17.50
2023-07-25T05:01:10.344Z,17.50
2023-07-25T05:03:37.330Z,17.40
2023-07-25T05:06:04.110Z,17.30
2023-07-25T05:08:30.868Z,17.20
2023-07-25T05:10:57.559Z,17.20
2023-07-25T05:13:24.458Z,17.30
2023-07-25T05:15:51.351Z,17.30
2023-07-25T05:18:18.125Z,17.40
2023-07-25T05:20:44.818Z,17.40
2023-07-25T05:23:11.738Z,17.40
2023-07-25T05:25:39.525Z,17.40
2023-07-25T05:28:06.204Z,17.40
2023-07-25T05:30:33.067Z,17.50
2023-07-25T05:33:00.105Z,17.50
2023-07-25T05:35:26.935Z,17.70
2023-07-25T05:37:53.629Z,17.80
2023-07-25T05:40:20.427Z,17.80
2023-07-25T05:42:48.233Z,17.90
2023-07-25T05:45:14.992Z,18.00
2023-07-25T05:47:41.792Z,18.00
2023-07-25T05:50:09.197Z,18.10
2023-07-25T05:52:35.954Z,18.10
2023-07-25T05:55:02.791Z,18.10
2023-07-25T05:57:29.554Z,18.20
2023-07-25T05:59:56.264Z,18.30
2023-07-25T06:02:23.046Z,18.40
2023-07-25T06:04:49.876Z,18.40
2023-07-25T06:07:16.638Z,18.50
2023-07-25T06:09:43.456Z,18.60
2023-07-25T06:12:10.379Z,18.70
2023-07-25T06:14:37.398Z,18.70
2023-07-25T06:17:04.474Z,18.80
2023-07-25T06:19:31.212Z,18.90
2023-07-25T06:21:57.907Z,19.00
2023-07-25T06:24:24.774Z,19.10
2023-07-25T06:26:51.575Z,19.10
2023-07-25T06:29:18.330Z,19.00
2023-07-25T06:31:45.160Z,18.90
2023-07-25T06:34:11.876Z,18.90
2023-07-25T06:36:38.582Z,18.90
2023-07-25T06:39:05.358Z,18.80
2023-07-25T06:41:32.382Z,18.70
2023-07-25T06:43:59.220Z,18.60
2023-07-25T06:46:26.181Z,18.60
2023-07-25T06:48:53.457Z,18.70
2023-07-25T06:51:21.401Z,18.70
2023-07-25T06:53:48.157Z,18.60
2023-07-25T06:56:15.161Z,18.60
2023-07-25T06:58:41.990Z,18.50
2023-07-25T07:01:08.758Z,18.40
2023-07-25T07:03:35.653Z,18.40
2023-07-25T07:06:02.375Z,18.30
2023-07-25T07:08:29.027Z,18.10
2023-07-25T07:10:56.339Z,18.00
2023-07-25T07:13:24.340Z,17.90
2023-07-25T07:15:51.452Z,17.90
2023-07-25T07:18:18.262Z,17.90
2023-07-25T07:20:49.988Z,18.00
2023-07-25T07:23:17.535Z,17.90
2023-07-25T07:25:45.113Z,18.10
2023-07-25T07:28:12.276Z,18.30
2023-07-25T07:30:39.100Z,18.40
2023-07-25T07:33:06.076Z,18.50
2023-07-25T07:35:32.829Z,18.60
2023-07-25T07:37:59.825Z,18.80
2023-07-25T07:40:26.668Z,19.00
2023-07-25T07:42:53.526Z,19.00
2023-07-25T07:45:20.305Z,19.10
2023-07-25T07:47:47.049Z,19.30
2023-07-25T07:50:13.750Z,19.20
2023-07-25T07:52:43.701Z,19.20
2023-07-25T07:55:12.152Z,19.40
2023-07-25T07:57:45.679Z,19.50
2023-07-25T08:00:13.085Z,19.80
2023-07-25T08:02:40.076Z,19.80
2023-07-25T08:05:07.502Z,19.90
2023-07-25T08:07:34.369Z,19.90
2023-07-25T08:10:01.287Z,19.90
2023-07-25T08:12:28.068Z,20.10
2023-07-25T08:14:54.795Z,20.10
2023-07-25T08:17:21.515Z,20.10
2023-07-25T08:19:48.296Z,20.00
2023-07-25T08:22:14.997Z,19.90
2023-07-25T08:24:42.292Z,19.80
2023-07-25T08:27:09.868Z,19.60
2023-07-25T08:29:41.734Z,19.70
2023-07-25T08:32:10.205Z,20.00
2023-07-25T08:34:38.390Z,20.10
2023-07-25T08:37:06.058Z,20.10
2023-07-25T08:39:32.948Z,20.20
2023-07-25T08:42:01.074Z,20.50
2023-07-25T08:44:28.281Z,20.40
2023-07-25T08:46:57.366Z,20.40
2023-07-25T08:49:25.995Z,20.40
2023-07-25T08:51:54.267Z,20.40
2023-07-25T08:54:31.154Z,20.40
2023-07-25T08:56:58.750Z,20.40
2023-07-25T08:59:26.586Z,20.70
2023-07-25T09:01:54.141Z,20.70
2023-07-25T09:04:22.134Z,20.70
2023-07-25T09:06:48.925Z,20.70
2023-07-25T09:09:15.799Z,20.70
2023-07-25T09:11:44.136Z,20.70
2023-07-25T09:14:11.536Z,20.80
2023-07-25T09:16:38.654Z,20.80
2023-07-25T09:19:05.358Z,20.90
2023-07-25T09:21:32.458Z,20.90
2023-07-25T09:24:00.637Z,21.10
2023-07-25T09:26:31.968Z,21.20
2023-07-25T09:29:01.095Z,21.30
2023-07-25T09:31:29.255Z,21.10
2023-07-25T09:33:57.823Z,21.00
2023-07-25T09:36:29.926Z,21.10
2023-07-25T09:38:56.729Z,21.40
2023-07-25T09:41:24.987Z,21.70
2023-07-25T09:43:52.791Z,21.70
2023-07-25T09:46:19.912Z,21.90
2023-07-25T09:48:49.189Z,22.00
2023-07-25T09:51:15.999Z,22.40
2023-07-25T09:53:43.841Z,22.40
2023-07-25T09:56:11.186Z,22.40
2023-07-25T09:58:44.565Z,22.30
2023-07-25T10:01:18.064Z,22.20
2023-07-25T10:03:45.968Z,22.20
2023-07-25T10:06:16.101Z,22.40
2023-07-25T10:08:44.802Z,22.70
2023-07-25T10:11:16.051Z,23.00
2023-07-25T10:13:43.376Z,23.10
2023-07-25T10:16:15.169Z,23.30
2023-07-25T10:18:42.858Z,23.50
2023-07-25T10:21:11.024Z,23.30
2023-07-25T10:23:38.148Z,23.40
2023-07-25T10:26:19.537Z,23.50
2023-07-25T10:28:53.657Z,23.40
2023-07-25T10:31:25.161Z,23.50
2023-07-25T10:33:56.040Z,23.70
2023-07-25T10:36:24.708Z,23.90
2023-07-25T10:38:53.662Z,23.70
2023-07-25T10:41:21.533Z,23.50
2023-07-25T10:43:53.388Z,23.10
2023-07-25T10:46:22.341Z,23.00
2023-07-25T10:48:50.605Z,23.00
2023-07-25T10:51:19.754Z,23.10
2023-07-25T10:54:05.279Z,22.90
2023-07-25T10:56:32.113Z,22.80
2023-07-25T10:59:13.238Z,22.50
2023-07-25T11:01:44.191Z,22.30
2023-07-25T11:04:25.171Z,22.10
2023-07-25T11:06:54.336Z,22.20
2023-07-25T11:09:22.369Z,22.50
2023-07-25T11:11:51.965Z,23.30
2023-07-25T11:14:20.020Z,23.90
2023-07-25T11:16:49.564Z,24.60
2023-07-25T11:19:16.508Z,25.00
2023-07-25T11:21:45.410Z,24.90
2023-07-25T11:24:13.297Z,24.90
2023-07-25T11:26:40.456Z,24.80
2023-07-25T11:29:13.967Z,24.90
2023-07-25T11:31:49.012Z,25.10
2023-07-25T11:34:17.525Z,25.10
2023-07-25T11:36:44.795Z,25.10
2023-07-25T11:39:12.916Z,25.00
2023-07-25T11:41:40.920Z,24.90
2023-07-25T11:44:13.249Z,25.00
2023-07-25T11:46:42.512Z,25.30
2023-07-25T11:49:10.263Z,24.90
2023-07-25T11:51:38.320Z,24.70
2023-07-25T11:54:06.171Z,24.20
2023-07-25T11:56:34.496Z,24.50
2023-07-25T11:59:02.418Z,24.80
2023-07-25T12:01:31.024Z,24.90
2023-07-25T12:04:01.468Z,25.00
2023-07-25T12:06:34.218Z,25.30
2023-07-25T12:09:01.615Z,25.40
2023-07-25T12:11:28.761Z,25.40
2023-07-25T12:13:57.669Z,25.00
2023-07-25T12:16:26.093Z,25.00
2023-07-25T12:18:54.970Z,25.10
2023-07-25T12:21:29.742Z,24.90
2023-07-25T12:24:03.310Z,24.90
2023-07-25T12:26:39.715Z,24.90
2023-07-25T12:29:25.504Z,24.70
2023-07-25T12:31:53.318Z,24.70
2023-07-25T12:34:21.848Z,24.80
2023-07-25T12:36:49.821Z,24.70
2023-07-25T12:39:16.672Z,24.70
2023-07-25T12:41:46.426Z,24.20
2023-07-25T12:44:13.372Z,23.90
2023-07-25T12:46:41.146Z,23.90
2023-07-25T12:49:08.531Z,24.00
2023-07-25T12:51:36.950Z,24.10
2023-07-25T12:54:04.036Z,24.20
2023-07-25T12:56:31.304Z,24.40
2023-07-25T12:58:58.479Z,24.50
2023-07-25T13:01:25.500Z,24.10
2023-07-25T13:03:52.698Z,23.80
2023-07-25T13:06:19.654Z,23.60
2023-07-25T13:08:46.431Z,23.10
2023-07-25T13:11:13.212Z,22.70
2023-07-25T13:13:39.971Z,21.80
2023-07-25T13:16:07.708Z,20.10
2023-07-25T13:18:34.553Z,17.60
2023-07-25T13:21:02.110Z,15.50
2023-07-25T13:23:28.857Z,14.80
2023-07-25T13:25:55.724Z,14.60
2023-07-25T13:28:22.596Z,14.50
2023-07-25T13:30:49.358Z,14.50
2023-07-25T13:33:16.194Z,14.50
2023-07-25T13:35:42.916Z,14.50
2023-07-25T13:38:09.957Z,14.70
2023-07-25T13:40:36.866Z,14.80
2023-07-25T13:43:03.644Z,14.90
2023-07-25T13:45:41.887Z,14.90
2023-07-25T13:48:13.755Z,15.00
2023-07-25T13:50:51.830Z,15.10
2023-07-25T13:53:20.128Z,15.20
2023-07-25T13:55:46.898Z,15.40
2023-07-25T13:58:23.566Z,15.60
2023-07-25T14:00:51.143Z,16.00
2023-07-25T14:03:17.854Z,16.30
2023-07-25T14:05:44.654Z,16.60
2023-07-25T14:08:11.552Z,16.90
2023-07-25T14:10:38.696Z,17.10
2023-07-25T14:13:06.046Z,17.50
2023-07-25T14:15:33.391Z,18.00
2023-07-25T14:18:01.689Z,18.40
2023-07-25T14:20:29.553Z,18.70
2023-07-25T14:22:56.403Z,19.30
2023-07-25T14:25:23.311Z,19.80
2023-07-25T14:27:50.233Z,20.30
2023-07-25T14:30:17.361Z,20.60
2023-07-25T14:32:44.401Z,20.50
2023-07-25T14:35:11.179Z,20.50
2023-07-25T14:37:54.248Z,20.20
2023-07-25T14:40:22.520Z,19.80
2023-07-25T14:42:49.313Z,19.70
2023-07-25T14:45:16.309Z,19.80
2023-07-25T14:47:43.211Z,19.70
2023-07-25T14:50:10.686Z,19.60
2023-07-25T14:52:37.484Z,19.50
2023-07-25T14:55:04.535Z,19.70
2023-07-25T14:57:31.629Z,19.90
2023-07-25T14:59:58.577Z,20.10
2023-07-25T15:02:25.540Z,20.20
2023-07-25T15:04:52.358Z,20.30
2023-07-25T15:07:19.182Z,20.40
2023-07-25T15:09:45.930Z,20.60
2023-07-25T15:12:12.819Z,20.60
2023-07-25T15:14:39.639Z,20.80
2023-07-25T15:17:06.507Z,20.90
2023-07-25T15:19:33.459Z,21.10
2023-07-25T15:22:00.226Z,21.00
2023-07-25T15:24:27.040Z,21.00
2023-07-25T15:26:53.782Z,21.00
2023-07-25T15:29:20.487Z,20.90
2023-07-25T15:31:48.502Z,20.90
2023-07-25T15:34:15.506Z,21.10
2023-07-25T15:36:44.699Z,21.00
2023-07-25T15:39:13.694Z,20.90
2023-07-25T15:41:40.416Z,20.90
2023-07-25T15:44:07.546Z,20.90
2023-07-25T15:46:34.288Z,20.90
2023-07-25T15:49:00.974Z,21.00
2023-07-25T15:51:27.763Z,20.80
2023-07-25T15:53:54.510Z,20.60
2023-07-25T15:56:21.356Z,20.60
2023-07-25T15:58:48.220Z,20.40
2023-07-25T16:01:15.107Z,20.60
2023-07-25T16:03:45.962Z,20.50
2023-07-25T16:06:13.496Z,20.50
2023-07-25T16:08:40.267Z,20.40
2023-07-25T16:11:07.140Z,20.40
2023-07-25T16:13:40.991Z,20.30
2023-07-25T16:16:07.858Z,19.90
2023-07-25T16:18:34.881Z,19.70
2023-07-25T16:21:02.204Z,19.60
2023-07-25T16:23:28.904Z,19.50
2023-07-25T16:25:57.473Z,19.50
2023-07-25T16:28:24.337Z,19.40
2023-07-25T16:30:53.460Z,19.40
2023-07-25T16:33:29.642Z,19.40
2023-07-25T16:35:56.335Z,19.30
2023-07-25T16:38:23.053Z,19.20
2023-07-25T16:40:51.606Z,19.20
2023-07-25T16:43:18.439Z,19.10
2023-07-25T16:45:45.306Z,19.10
2023-07-25T16:48:11.993Z,19.30
2023-07-25T16:50:38.935Z,19.50
2023-07-25T16:53:07.094Z,19.50
2023-07-25T16:55:33.890Z,19.60
2023-07-25T16:58:00.905Z,19.60
2023-07-25T17:00:28.471Z,19.50
2023-07-25T17:02:55.264Z,19.60
2023-07-25T17:05:22.051Z,19.70
2023-07-25T17:07:48.758Z,19.80
2023-07-25T17:10:15.605Z,20.00
2023-07-25T17:12:42.466Z,20.20
2023-07-25T17:15:09.638Z,20.30
2023-07-25T17:17:36.302Z,20.20
2023-07-25T17:20:03.039Z,20.00
2023-07-25T17:22:30.845Z,19.70
2023-07-25T17:24:57.716Z,19.70
2023-07-25T17:27:24.948Z,19.80
2023-07-25T17:29:51.927Z,19.70
2023-07-25T17:32:21.515Z,19.30
2023-07-25T17:34:48.371Z,19.00
2023-07-25T17:37:15.292Z,18.90
2023-07-25T17:39:41.985Z,18.80
2023-07-25T17:42:08.718Z,18.60
2023-07-25T17:44:35.604Z,18.40
2023-07-25T17:47:02.644Z,18.30
2023-07-25T17:49:29.404Z,18.20
2023-07-25T17:51:56.104Z,18.20
2023-07-25T17:54:22.824Z,18.00
2023-07-25T17:56:49.525Z,17.80
2023-07-25T17:59:16.257Z,17.90
2023-07-25T18:01:43.034Z,17.70
2023-07-25T18:04:09.782Z,17.60
2023-07-25T18:06:36.485Z,17.50
2023-07-25T18:09:03.325Z,17.50
2023-07-25T18:11:30.226Z,17.40
2023-07-25T18:13:57.401Z,17.50
2023-07-25T18:16:24.961Z,17.50
2023-07-25T18:18:51.696Z,17.40
2023-07-25T18:21:18.427Z,17.40
2023-07-25T18:23:45.140Z,17.30
2023-07-25T18:26:11.945Z,17.20
2023-07-25T18:28:38.646Z,17.10
2023-07-25T18:31:05.420Z,17.10
2023-07-25T18:33:32.143Z,17.10
2023-07-25T18:35:58.840Z,17.10
2023-07-25T18:38:25.628Z,17.10
2023-07-25T18:40:52.362Z,17.10
2023-07-25T18:43:20.582Z,17.00
2023-07-25T18:45:47.887Z,16.90
2023-07-25T18:48:15.063Z,16.70
2023-07-25T18:50:43.880Z,16.60
2023-07-25T18:53:10.766Z,16.50
2023-07-25T18:55:37.410Z,16.40
2023-07-25T18:58:04.080Z,16.40
2023-07-25T19:00:30.854Z,16.50
2023-07-25T19:02:57.681Z,16.50
2023-07-25T19:05:24.432Z,16.50
2023-07-25T19:07:51.184Z,16.50
2023-07-25T19:10:18.980Z,16.50
2023-07-25T19:12:45.960Z,16.50
2023-07-25T19:15:12.732Z,16.60
2023-07-25T19:17:39.499Z,16.40
2023-07-25T19:20:07.052Z,16.40
2023-07-25T19:22:35.512Z,16.40
2023-07-25T19:25:02.437Z,16.40
2023-07-25T19:27:29.169Z,16.40
2023-07-25T19:29:55.925Z,16.40
2023-07-25T19:32:23.744Z,16.30
2023-07-25T19:34:50.503Z,16.30
2023-07-25T19:37:17.186Z,16.40
2023-07-25T19:39:43.909Z,16.30
2023-07-25T19:42:10.660Z,16.20
2023-07-25T19:44:37.538Z,16.20
2023-07-25T19:47:06.164Z,16.20
2023-07-25T19:49:33.073Z,16.10
2023-07-25T19:51:59.794Z,16.10
2023-07-25T19:54:26.646Z,16.10
2023-07-25T19:56:53.319Z,16.10
2023-07-25T19:59:20.039Z,16.00
2023-07-25T20:01:46.789Z,15.90
2023-07-25T20:04:13.499Z,15.70
2023-07-25T20:06:40.333Z,15.60
2023-07-25T20:09:07.039Z,15.50
2023-07-25T20:11:33.854Z,15.40
2023-07-25T20:14:02.987Z,15.40
2023-07-25T20:16:30.044Z,15.40
2023-07-25T20:18:57.013Z,15.30
2023-07-25T20:21:23.856Z,15.20
2023-07-25T20:24:21.606Z,15.10
2023-07-25T20:26:48.462Z,15.10
2023-07-25T20:29:15.591Z,15.00
2023-07-25T20:31:42.302Z,14.90
2023-07-25T20:34:09.007Z,14.90
2023-07-25T20:36:35.691Z,14.80
2023-07-25T20:39:02.343Z,14.80
2023-07-25T20:41:29.127Z,14.80
2023-07-25T20:43:55.850Z,14.70
2023-07-25T20:46:22.624Z,14.70
2023-07-25T20:48:49.369Z,14.70
2023-07-25T20:51:16.064Z,14.60
2023-07-25T20:53:42.825Z,14.60
2023-07-25T20:56:09.591Z,14.60
2023-07-25T20:58:36.298Z,14.60
2023-07-25T21:01:03.036Z,14.50
2023-07-25T21:03:29.849Z,14.60
2023-07-25T21:05:57.237Z,14.50
2023-07-25T21:08:24.185Z,14.50
2023-07-25T21:10:51.020Z,14.50
2023-07-25T21:13:17.721Z,14.40
2023-07-25T21:15:44.515Z,14.50
2023-07-25T21:18:14.141Z,14.40
2023-07-25T21:20:42.080Z,14.50
2023-07-25T21:23:08.879Z,14.40
2023-07-25T21:25:38.355Z,14.40
2023-07-25T21:28:05.483Z,14.40
2023-07-25T21:30:32.168Z,14.30
2023-07-25T21:32:58.961Z,14.40
2023-07-25T21:35:26.305Z,14.30
2023-07-25T21:37:52.999Z,14.40
2023-07-25T21:40:19.737Z,14.40
2023-07-25T21:42:46.486Z,14.40
2023-07-25T21:45:13.255Z,14.40
2023-07-25T21:47:40.000Z,14.40
2023-07-25T21:50:07.085Z,14.40
2023-07-25T21:52:33.761Z,14.50
2023-07-25T21:55:01.097Z,14.50
2023-07-25T21:57:27.803Z,14.60
2023-07-25T21:59:54.571Z,14.60
2023-07-25T22:02:25.067Z,14.60
2023-07-25T22:04:53.646Z,14.60
2023-07-25T22:07:20.349Z,14.70
2023-07-25T22:09:47.811Z,14.70
2023-07-25T22:12:15.284Z,14.70
2023-07-25T22:14:41.984Z,14.60
2023-07-25T22:17:08.795Z,14.60
2023-07-25T22:19:35.498Z,14.60
2023-07-25T22:22:03.397Z,14.60
2023-07-25T22:24:30.156Z,14.60
2023-07-25T22:26:56.908Z,14.60
2023-07-25T22:29:23.667Z,14.60
2023-07-25T22:31:50.583Z,14.50
2023-07-25T22:34:17.317Z,14.50
2023-07-25T22:36:44.006Z,14.50
2023-07-25T22:39:10.683Z,14.50
2023-07-25T22:41:37.340Z,14.40
2023-07-25T22:44:04.131Z,14.40
2023-07-25T22:46:31.028Z,14.20
2023-07-25T22:48:58.318Z,14.20
2023-07-25T22:51:26.004Z,14.10
2023-07-25T22:53:52.702Z,14.10
2023-07-25T22:56:19.454Z,14.10
2023-07-25T22:58:46.205Z,14.10
